createdAt,value
2018-06-22T00:00:26.609Z,2.02
2018-06-22T00:02:55.844Z,1.60
2018-06-22T00:05:25.300Z,2.07
2018-06-22T00:07:54.545Z,1.95
2018-06-22T00:10:23.860Z,1.85
2018-06-22T00:12:53.424Z,1.70
2018-06-22T00:15:22.713Z,2.30
2018-06-22T00:17:51.810Z,1.80
2018-06-22T00:20:21.197Z,2.02
2018-06-22T00:22:50.456Z,1.98
2018-06-22T00:25:19.509Z,1.67
2018-06-22T00:27:48.911Z,2.20
2018-06-22T00:30:18.356Z,1.90
2018-06-22T00:32:47.702Z,1.80
2018-06-22T00:35:16.881Z,1.65
2018-06-22T00:37:46.133Z,1.87
2018-06-22T00:40:15.292Z,1.73
2018-06-22T00:42:44.553Z,1.72
2018-06-22T00:45:13.708Z,1.70
2018-06-22T00:47:42.927Z,1.85
2018-06-22T00:50:12.305Z,1.60
2018-06-22T00:52:41.480Z,2.12
2018-06-22T00:55:10.778Z,2.20
2018-06-22T00:57:40.200Z,2.10
2018-06-22T01:00:09.649Z,2.10
2018-06-22T01:02:39.095Z,1.80
2018-06-22T01:05:08.269Z,1.87
2018-06-22T01:07:37.655Z,1.80
2018-06-22T01:10:06.682Z,1.80
2018-06-22T01:12:35.659Z,2.20
2018-06-22T01:15:04.697Z,1.85
2018-06-22T01:17:34.333Z,1.90
2018-06-22T01:20:03.957Z,1.90
2018-06-22T01:22:32.796Z,1.77
2018-06-22T01:25:02.064Z,1.93
2018-06-22T01:27:31.113Z,2.10
2018-06-22T01:30:00.418Z,1.82
2018-06-22T01:32:29.205Z,2.10
2018-06-22T01:34:58.244Z,2.12
2018-06-22T01:37:27.262Z,2.15
2018-06-22T01:39:56.225Z,2.20
2018-06-22T01:42:25.154Z,2.13
2018-06-22T01:44:54.150Z,2.17
2018-06-22T01:47:23.009Z,2.42
2018-06-22T01:49:51.965Z,2.40
2018-06-22T01:52:20.893Z,2.50
2018-06-22T01:54:49.872Z,1.92
2018-06-22T01:57:18.849Z,1.90
2018-06-22T01:59:47.717Z,2.10
2018-06-22T02:02:16.663Z,2.27
2018-06-22T02:04:45.533Z,2.00
2018-06-22T02:07:14.462Z,2.00
2018-06-22T02:09:43.389Z,2.00
2018-06-22T02:12:12.234Z,2.00
2018-06-22T02:14:42.078Z,2.20
2018-06-22T02:17:11.058Z,1.82
2018-06-22T02:19:39.929Z,2.22
2018-06-22T02:22:09.189Z,2.05
2018-06-22T02:24:38.196Z,2.10
2018-06-22T02:27:07.563Z,2.10
2018-06-22T02:29:36.465Z,2.60
2018-06-22T02:32:05.829Z,2.30
2018-06-22T02:34:34.767Z,2.52
2018-06-22T02:37:03.809Z,2.10
2018-06-22T02:39:32.817Z,2.12
2018-06-22T02:42:02.118Z,2.13
2018-06-22T02:44:31.302Z,2.02
2018-06-22T02:47:01.030Z,2.33
2018-06-22T02:49:30.221Z,2.17
2018-06-22T02:51:59.305Z,2.20
2018-06-22T02:54:28.314Z,2.00
2018-06-22T02:56:57.278Z,2.17
2018-06-22T02:59:26.130Z,2.30
2018-06-22T03:01:55.048Z,2.40
2018-06-22T03:04:24.005Z,2.30
2018-06-22T03:06:53.014Z,1.90
2018-06-22T03:09:21.858Z,2.17
2018-06-22T03:11:50.638Z,2.17
2018-06-22T03:14:20.100Z,2.50
2018-06-22T03:16:49.273Z,2.08
2018-06-22T03:19:18.521Z,2.33
2018-06-22T03:21:47.688Z,2.12
2018-06-22T03:24:17.044Z,2.00
2018-06-22T03:26:46.270Z,2.10
2018-06-22T03:29:15.789Z,2.47
2018-06-22T03:31:45.148Z,2.23
2018-06-22T03:34:14.400Z,2.22
2018-06-22T03:36:43.652Z,2.33
2018-06-22T03:39:12.898Z,2.33
2018-06-22T03:41:48.584Z,2.40
2018-06-22T03:44:17.857Z,2.60
2018-06-22T03:46:47.311Z,2.50
2018-06-22T03:49:16.379Z,2.52
2018-06-22T03:51:45.413Z,2.47
2018-06-22T03:54:14.835Z,2.58
2018-06-22T03:56:43.943Z,2.93
2018-06-22T03:59:13.229Z,2.55
2018-06-22T04:01:43.492Z,2.58
2018-06-22T04:04:12.635Z,2.60
2018-06-22T04:06:41.699Z,2.55
2018-06-22T04:09:11.512Z,2.20
2018-06-22T04:11:40.748Z,2.42
2018-06-22T04:14:09.896Z,2.52
2018-06-22T04:16:39.268Z,2.20
2018-06-22T04:19:08.673Z,2.30
2018-06-22T04:21:37.900Z,2.33
2018-06-22T04:24:07.177Z,2.65
2018-06-22T04:26:36.413Z,2.10
2018-06-22T04:29:05.700Z,2.63
2018-06-22T04:31:35.252Z,2.95
2018-06-22T04:34:04.532Z,2.43
2018-06-22T04:36:33.925Z,2.67
2018-06-22T04:39:03.466Z,2.27
2018-06-22T04:41:32.917Z,2.45
2018-06-22T04:44:02.305Z,2.52
2018-06-22T04:46:31.852Z,2.40
2018-06-22T04:49:01.453Z,2.15
2018-06-22T04:51:31.301Z,2.40
2018-06-22T04:54:00.984Z,2.20
2018-06-22T04:56:30.885Z,2.45
2018-06-22T04:59:00.477Z,2.80
2018-06-22T05:01:30.130Z,2.52
2018-06-22T05:03:59.304Z,2.45
2018-06-22T05:06:28.773Z,2.22
2018-06-22T05:08:58.103Z,2.20
2018-06-22T05:11:27.176Z,2.77
2018-06-22T05:13:56.428Z,2.70
2018-06-22T05:16:25.628Z,2.35
2018-06-22T05:18:54.836Z,2.45
2018-06-22T05:21:24.012Z,2.17
2018-06-22T05:23:53.149Z,2.75
2018-06-22T05:26:22.219Z,2.10
2018-06-22T05:28:51.538Z,2.30
2018-06-22T05:31:20.639Z,2.10
2018-06-22T05:33:49.893Z,2.25
2018-06-22T05:36:19.257Z,2.30
2018-06-22T05:38:48.430Z,2.22
2018-06-22T05:41:17.695Z,2.20
2018-06-22T05:43:46.937Z,2.42
2018-06-22T05:46:16.108Z,2.15
2018-06-22T05:48:45.465Z,2.60
2018-06-22T05:51:14.913Z,2.10
2018-06-22T05:53:44.232Z,2.33
2018-06-22T05:56:13.285Z,2.17
2018-06-22T05:58:42.439Z,2.27
2018-06-22T06:01:11.756Z,2.58
2018-06-22T06:03:40.965Z,2.53
2018-06-22T06:06:10.255Z,3.12
2018-06-22T06:08:39.536Z,3.00
2018-06-22T06:11:09.068Z,3.25
2018-06-22T06:13:38.429Z,3.55
2018-06-22T06:16:08.096Z,2.47
2018-06-22T06:18:37.673Z,3.17
2018-06-22T06:21:07.173Z,2.92
2018-06-22T06:23:36.451Z,2.72
2018-06-22T06:26:05.913Z,3.65
2018-06-22T06:28:35.321Z,2.70
2018-06-22T06:31:04.758Z,2.30
2018-06-22T06:33:34.155Z,2.52
2018-06-22T06:36:03.572Z,2.30
2018-06-22T06:38:32.856Z,2.25
2018-06-22T06:41:02.277Z,3.07
2018-06-22T06:43:31.908Z,2.80
2018-06-22T06:46:01.460Z,2.77
2018-06-22T06:48:30.515Z,2.87
2018-06-22T06:50:59.880Z,2.52
2018-06-22T06:53:29.165Z,2.33
2018-06-22T06:55:58.695Z,2.12
2018-06-22T06:58:27.880Z,2.35
2018-06-22T07:00:57.084Z,2.50
2018-06-22T07:03:26.156Z,2.60
2018-06-22T07:05:55.309Z,2.42
2018-06-22T07:08:24.547Z,2.70
2018-06-22T07:10:54.040Z,2.40
2018-06-22T07:13:23.305Z,2.53
2018-06-22T07:15:52.664Z,2.70
2018-06-22T07:18:22.055Z,2.52
2018-06-22T07:20:51.601Z,2.35
2018-06-22T07:23:20.728Z,2.75
2018-06-22T07:25:49.812Z,2.70
2018-06-22T07:28:19.032Z,2.65
2018-06-22T07:30:48.335Z,2.57
2018-06-22T07:33:17.654Z,2.52
2018-06-22T07:35:46.823Z,3.15
2018-06-22T07:38:16.060Z,2.90
2018-06-22T07:40:45.345Z,2.67
2018-06-22T07:43:14.697Z,2.77
2018-06-22T07:45:43.860Z,2.50
2018-06-22T07:48:13.208Z,3.27
2018-06-22T07:50:42.376Z,2.98
2018-06-22T07:53:11.416Z,2.75
2018-06-22T07:55:40.496Z,2.42
2018-06-22T07:58:09.533Z,2.63
2018-06-22T08:00:38.709Z,2.87
2018-06-22T08:03:08.265Z,2.90
2018-06-22T08:05:37.740Z,2.50
2018-06-22T08:08:07.116Z,3.00
2018-06-22T08:10:36.372Z,3.00
2018-06-22T08:13:06.005Z,3.10
2018-06-22T08:15:35.442Z,2.83
2018-06-22T08:18:04.877Z,3.05
2018-06-22T08:20:34.271Z,2.70
2018-06-22T08:23:03.686Z,3.20
2018-06-22T08:25:33.132Z,3.03
2018-06-22T08:28:02.544Z,2.80
2018-06-22T08:30:31.939Z,2.95
2018-06-22T08:33:01.568Z,2.95
2018-06-22T08:35:30.916Z,3.05
2018-06-22T08:38:00.208Z,2.80
2018-06-22T08:40:29.609Z,2.90
2018-06-22T08:42:59.595Z,2.83
2018-06-22T08:45:29.054Z,3.40
2018-06-22T08:47:58.324Z,2.33
2018-06-22T08:50:27.449Z,2.90
2018-06-22T08:52:56.515Z,2.80
2018-06-22T08:55:25.760Z,2.83
2018-06-22T08:57:54.957Z,3.02
2018-06-22T09:00:24.061Z,3.10
2018-06-22T09:02:53.264Z,2.70
2018-06-22T09:05:22.520Z,3.10
2018-06-22T09:07:51.584Z,3.83
2018-06-22T09:10:21.725Z,3.12
2018-06-22T09:12:51.072Z,3.05
2018-06-22T09:15:20.918Z,3.30
2018-06-22T09:17:50.176Z,3.10
2018-06-22T09:20:19.528Z,2.92
2018-06-22T09:22:48.713Z,2.85
2018-06-22T09:25:17.860Z,2.80
2018-06-22T09:27:46.933Z,2.83
2018-06-22T09:30:16.009Z,3.05
2018-06-22T09:32:45.157Z,3.17
2018-06-22T09:35:14.424Z,2.93
2018-06-22T09:37:43.577Z,2.87
2018-06-22T09:40:12.732Z,3.08
2018-06-22T09:42:41.542Z,2.72
2018-06-22T09:45:10.872Z,3.17
2018-06-22T09:47:40.109Z,3.22
2018-06-22T09:50:09.285Z,2.83
2018-06-22T09:52:38.430Z,2.50
2018-06-22T09:55:07.402Z,3.02
2018-06-22T09:57:36.289Z,2.87
2018-06-22T10:00:05.445Z,2.85
2018-06-22T10:02:34.980Z,2.70
2018-06-22T10:05:04.346Z,2.67
2018-06-22T10:07:33.800Z,2.90
2018-06-22T10:10:03.129Z,2.63
2018-06-22T10:12:32.321Z,2.50
2018-06-22T10:15:01.633Z,2.40
2018-06-22T10:17:31.044Z,2.42
2018-06-22T10:20:00.489Z,2.42
2018-06-22T10:22:29.203Z,2.60
2018-06-22T10:24:58.361Z,2.60
2018-06-22T10:27:27.556Z,2.15
2018-06-22T10:29:56.953Z,2.60
2018-06-22T10:32:26.302Z,2.63
2018-06-22T10:34:55.573Z,2.30
2018-06-22T10:37:24.927Z,2.35
2018-06-22T10:39:54.188Z,2.52
2018-06-22T10:42:23.352Z,2.47
2018-06-22T10:44:52.561Z,2.30
2018-06-22T10:47:21.846Z,2.20
2018-06-22T10:49:51.278Z,2.22
2018-06-22T10:52:20.653Z,2.47
2018-06-22T10:54:50.113Z,2.10
2018-06-22T10:57:19.428Z,2.60
2018-06-22T10:59:48.810Z,2.60
2018-06-22T11:02:18.044Z,2.27
2018-06-22T11:04:47.366Z,2.22
2018-06-22T11:07:16.633Z,2.47
2018-06-22T11:09:45.992Z,2.27
2018-06-22T11:12:15.057Z,2.55
2018-06-22T11:14:44.296Z,2.58
2018-06-22T11:17:13.574Z,2.22
2018-06-22T11:19:42.725Z,2.42
2018-06-22T11:22:11.997Z,2.60
2018-06-22T11:24:41.345Z,2.35
2018-06-22T11:27:10.665Z,2.10
2018-06-22T11:29:39.857Z,2.12
2018-06-22T11:32:09.391Z,1.90
2018-06-22T11:34:38.597Z,2.00
2018-06-22T11:37:08.080Z,1.92
2018-06-22T11:39:37.288Z,2.20
2018-06-22T11:42:06.641Z,2.10
2018-06-22T11:44:35.947Z,1.80
2018-06-22T11:47:05.329Z,2.00
2018-06-22T11:49:34.795Z,1.85
2018-06-22T11:52:04.252Z,2.12
2018-06-22T11:54:33.636Z,2.00
2018-06-22T11:57:02.934Z,2.17
2018-06-22T11:59:32.414Z,2.00
2018-06-22T12:02:01.834Z,2.58
2018-06-22T12:04:31.390Z,2.13
2018-06-22T12:07:00.948Z,2.20
2018-06-22T12:09:30.294Z,2.20
2018-06-22T12:11:59.753Z,2.20
2018-06-22T12:14:29.154Z,2.25
2018-06-22T12:16:58.340Z,1.90
2018-06-22T12:19:27.617Z,2.17
2018-06-22T12:21:56.752Z,2.30
2018-06-22T12:24:26.083Z,2.10
2018-06-22T12:26:55.381Z,1.90
2018-06-22T12:29:24.557Z,2.27
2018-06-22T12:31:54.109Z,1.92
2018-06-22T12:34:23.393Z,2.05
2018-06-22T12:36:52.652Z,1.90
2018-06-22T12:39:21.921Z,1.77
2018-06-22T12:41:51.364Z,1.98
2018-06-22T12:44:20.870Z,2.10
2018-06-22T12:46:50.195Z,1.77
2018-06-22T12:49:19.473Z,2.20
2018-06-22T12:51:48.791Z,2.00
2018-06-22T12:54:18.148Z,2.20
2018-06-22T12:56:47.560Z,1.95
2018-06-22T12:59:16.768Z,2.05
2018-06-22T13:01:45.956Z,1.80
2018-06-22T13:04:15.288Z,1.90
2018-06-22T13:06:44.353Z,4.05
2018-06-22T13:09:13.642Z,3.67
2018-06-22T13:11:42.884Z,3.42
2018-06-22T13:14:12.236Z,3.30
2018-06-22T13:16:41.423Z,3.12
2018-06-22T13:19:10.698Z,3.20
2018-06-22T13:21:50.996Z,3.30
2018-06-22T13:24:21.416Z,3.00
2018-06-22T13:26:50.840Z,3.62
2018-06-22T13:29:20.100Z,3.20
2018-06-22T13:31:49.488Z,3.40
2018-06-22T13:34:18.640Z,3.40
2018-06-22T13:36:48.551Z,3.17
2018-06-22T13:39:18.866Z,3.00
2018-06-22T13:41:48.515Z,3.13
2018-06-22T13:44:17.824Z,3.20
2018-06-22T13:46:47.125Z,3.85
2018-06-22T13:49:16.292Z,3.30
2018-06-22T13:51:45.334Z,3.40
2018-06-22T13:54:14.621Z,2.87
2018-06-22T13:56:44.218Z,3.05
2018-06-22T13:59:13.545Z,3.10
2018-06-22T14:01:43.061Z,3.70
2018-06-22T14:04:17.395Z,3.00
2018-06-22T14:06:52.640Z,3.65
2018-06-22T14:09:22.092Z,2.95
2018-06-22T14:11:56.928Z,3.17
2018-06-22T14:14:26.193Z,3.12
2018-06-22T14:16:55.611Z,3.65
2018-06-22T14:19:24.993Z,2.93
2018-06-22T14:21:54.320Z,2.98
2018-06-22T14:24:23.496Z,3.00
2018-06-22T14:26:52.923Z,2.70
2018-06-22T14:29:22.252Z,2.85
2018-06-22T14:31:51.589Z,2.70
2018-06-22T14:34:21.024Z,3.02
2018-06-22T14:36:50.214Z,3.00
2018-06-22T14:39:19.433Z,3.05
2018-06-22T14:41:48.900Z,2.77
2018-06-22T14:44:18.118Z,3.10
2018-06-22T14:46:47.266Z,3.02
2018-06-22T14:49:16.684Z,2.40
2018-06-22T14:51:46.065Z,3.07
2018-06-22T14:54:20.536Z,2.85
2018-06-22T14:56:54.668Z,2.50
2018-06-22T14:59:29.244Z,2.70
2018-06-22T15:03:01.781Z,3.08
2018-06-22T15:05:35.961Z,2.83
2018-06-22T15:08:07.039Z,2.80
2018-06-22T15:10:36.244Z,2.75
2018-06-22T15:13:05.480Z,2.75
2018-06-22T15:15:34.771Z,2.60
2018-06-22T15:18:04.096Z,2.62
2018-06-22T15:20:33.173Z,2.80
2018-06-22T15:23:02.221Z,2.83
2018-06-22T15:25:31.333Z,2.60
2018-06-22T15:28:00.648Z,2.52
2018-06-22T15:30:29.930Z,3.37
2018-06-22T15:32:59.264Z,3.03
2018-06-22T15:35:33.776Z,2.60
2018-06-22T15:38:08.141Z,2.60
2018-06-22T15:40:42.541Z,2.55
2018-06-22T15:43:17.041Z,2.52
2018-06-22T15:45:51.547Z,2.58
2018-06-22T15:48:26.018Z,2.85
2018-06-22T15:51:00.375Z,2.90
2018-06-22T15:53:34.861Z,2.95
2018-06-22T15:56:10.684Z,2.83
2018-06-22T15:58:39.860Z,2.80
2018-06-22T16:01:09.154Z,2.87
2018-06-22T16:03:43.624Z,2.90
2018-06-22T16:06:12.869Z,2.90
2018-06-22T16:08:42.145Z,2.67
2018-06-22T16:11:11.719Z,2.90
2018-06-22T16:13:41.013Z,2.70
2018-06-22T16:16:15.712Z,2.83
2018-06-22T16:18:50.030Z,2.98
2018-06-22T16:21:24.652Z,2.87
2018-06-22T16:23:58.993Z,2.87
2018-06-22T16:26:33.131Z,2.40
2018-06-22T16:29:02.480Z,2.70
2018-06-22T16:31:31.893Z,2.85
2018-06-22T16:34:01.210Z,3.08
2018-06-22T16:36:30.836Z,2.40
2018-06-22T16:38:59.999Z,3.08
2018-06-22T16:41:29.244Z,2.95
2018-06-22T16:43:58.520Z,2.65
2018-06-22T16:46:27.772Z,2.77
2018-06-22T16:48:56.832Z,2.75
2018-06-22T16:51:26.092Z,2.80
2018-06-22T16:53:55.256Z,2.70
2018-06-22T16:56:24.811Z,3.08
2018-06-22T16:58:54.091Z,2.98
2018-06-22T17:01:23.244Z,2.65
2018-06-22T17:03:52.400Z,2.25
2018-06-22T17:06:22.073Z,2.47
2018-06-22T17:08:56.436Z,2.62
2018-06-22T17:11:30.898Z,2.83
2018-06-22T17:14:05.308Z,2.65
2018-06-22T17:16:39.692Z,2.40
2018-06-22T17:19:08.936Z,2.53
2018-06-22T17:21:38.179Z,2.70
2018-06-22T17:24:07.432Z,2.75
2018-06-22T17:26:36.741Z,2.57
2018-06-22T17:29:06.160Z,2.77
2018-06-22T17:31:35.328Z,2.60
2018-06-22T17:34:04.511Z,3.02
2018-06-22T17:36:33.184Z,3.00
2018-06-22T17:39:02.464Z,3.30
2018-06-22T17:41:31.656Z,2.80
2018-06-22T17:44:01.015Z,3.10
2018-06-22T17:46:30.457Z,2.80
2018-06-22T17:48:59.651Z,3.02
2018-06-22T17:51:28.799Z,2.95
2018-06-22T17:53:58.040Z,2.95
2018-06-22T17:56:31.084Z,3.22
2018-06-22T17:59:05.754Z,2.90
2018-06-22T18:01:40.033Z,2.90
2018-06-22T18:04:14.438Z,2.95
2018-06-22T18:06:48.768Z,3.60
2018-06-22T18:10:23.619Z,3.42
2018-06-22T18:12:55.643Z,3.52
2018-06-22T18:15:24.929Z,3.30
2018-06-22T18:17:54.114Z,3.37
2018-06-22T18:20:23.409Z,4.00
2018-06-22T18:22:52.102Z,3.80
2018-06-22T18:25:21.444Z,3.35
2018-06-22T18:27:50.853Z,3.42
2018-06-22T18:30:20.233Z,3.17
2018-06-22T18:32:49.625Z,3.17
2018-06-22T18:35:19.137Z,3.22
2018-06-22T18:37:48.426Z,3.10
2018-06-22T18:40:17.572Z,3.62
2018-06-22T18:42:47.144Z,3.40
2018-06-22T18:45:16.760Z,3.60
2018-06-22T18:47:45.950Z,3.60
2018-06-22T18:50:15.430Z,3.58
2018-06-22T18:52:49.873Z,3.40
2018-06-22T18:55:23.912Z,3.60
2018-06-22T18:59:00.353Z,4.05
2018-06-22T19:01:34.969Z,3.70
2018-06-22T19:04:04.412Z,3.37
2018-06-22T19:06:33.923Z,3.43
2018-06-22T19:09:03.280Z,3.70
2018-06-22T19:11:32.440Z,4.57
2018-06-22T19:14:01.708Z,4.08
2018-06-22T19:16:31.176Z,3.75
2018-06-22T19:19:00.239Z,4.50
2018-06-22T19:21:29.801Z,4.00
2018-06-22T19:23:59.113Z,3.70
2018-06-22T19:26:28.424Z,4.05
2018-06-22T19:28:57.644Z,3.93
2018-06-22T19:31:26.949Z,4.30
2018-06-22T19:33:56.325Z,3.70
2018-06-22T19:36:25.880Z,3.87
2018-06-22T19:38:55.052Z,4.23
2018-06-22T19:41:24.453Z,4.60
2018-06-22T19:43:59.632Z,4.33
2018-06-22T19:46:34.032Z,4.70
2018-06-22T19:49:08.232Z,3.90
2018-06-22T19:51:42.544Z,3.77
2018-06-22T19:54:11.756Z,3.98
2018-06-22T19:56:41.073Z,4.45
2018-06-22T19:59:10.277Z,4.53
2018-06-22T20:01:39.480Z,4.40
2018-06-22T20:04:08.658Z,3.90
2018-06-22T20:06:38.017Z,4.93
2018-06-22T20:09:10.244Z,4.45
2018-06-22T20:11:39.504Z,4.33
2018-06-22T20:14:08.773Z,4.50
2018-06-22T20:16:37.992Z,4.35
2018-06-22T20:19:07.238Z,4.63
2018-06-22T20:21:36.508Z,4.53
2018-06-22T20:24:05.752Z,4.28
2018-06-22T20:26:34.948Z,4.25
2018-06-22T20:29:04.276Z,4.72
2018-06-22T20:31:38.727Z,4.63
2018-06-22T20:34:12.965Z,4.80
2018-06-22T20:36:47.216Z,4.67
2018-06-22T20:39:21.556Z,5.08
2018-06-22T20:41:56.036Z,4.67
2018-06-22T20:44:30.370Z,4.70
2018-06-22T20:47:04.873Z,4.65
2018-06-22T20:49:39.410Z,4.40
2018-06-22T20:52:08.709Z,4.37
2018-06-22T20:54:37.937Z,5.15
2018-06-22T20:57:07.268Z,5.30
2018-06-22T20:59:36.484Z,5.37
2018-06-22T21:02:06.052Z,5.17
2018-06-22T21:04:35.444Z,4.50
2018-06-22T21:07:04.676Z,4.67
2018-06-22T21:09:34.444Z,4.65
2018-06-22T21:12:03.728Z,4.75
2018-06-22T21:14:33.071Z,4.60
2018-06-22T21:17:02.345Z,4.42
2018-06-22T21:19:31.600Z,4.47
2018-06-22T21:22:05.845Z,5.70
2018-06-22T21:24:34.924Z,5.20
2018-06-22T21:27:09.280Z,4.62
2018-06-22T21:29:43.617Z,4.85
2018-06-22T21:32:17.949Z,4.75
2018-06-22T21:34:52.401Z,5.00
2018-06-22T21:37:26.456Z,4.62
2018-06-22T21:39:55.829Z,4.58
2018-06-22T21:42:24.972Z,5.45
2018-06-22T21:44:54.417Z,5.10
2018-06-22T21:47:24.096Z,4.37
2018-06-22T21:49:53.444Z,4.95
2018-06-22T21:52:22.627Z,4.53
2018-06-22T21:54:52.044Z,4.80
2018-06-22T21:57:21.505Z,4.53
2018-06-22T21:59:50.936Z,4.78
2018-06-22T22:02:20.297Z,4.47
2018-06-22T22:04:49.912Z,4.03
2018-06-22T22:07:19.520Z,4.42
2018-06-22T22:09:49.007Z,5.00
2018-06-22T22:12:17.816Z,4.33
2018-06-22T22:14:47.175Z,4.75
2018-06-22T22:17:16.716Z,4.95
2018-06-22T22:19:45.954Z,5.00
2018-06-22T22:22:15.302Z,4.67
2018-06-22T22:24:44.565Z,4.87
2018-06-22T22:27:13.918Z,4.40
2018-06-22T22:29:43.152Z,4.87
2018-06-22T22:32:12.479Z,4.50
2018-06-22T22:34:41.696Z,4.25
2018-06-22T22:37:10.956Z,4.90
2018-06-22T22:39:40.068Z,4.47
2018-06-22T22:42:09.416Z,4.65
2018-06-22T22:44:38.708Z,4.50
2018-06-22T22:47:08.027Z,4.83
2018-06-22T22:49:37.274Z,5.12
2018-06-22T22:52:06.675Z,4.10
2018-06-22T22:54:35.836Z,4.70
2018-06-22T22:57:05.251Z,4.90
2018-06-22T22:59:34.538Z,5.08
2018-06-22T23:02:03.830Z,5.12
2018-06-22T23:04:33.289Z,4.00
2018-06-22T23:07:02.579Z,4.90
2018-06-22T23:09:31.835Z,4.77
2018-06-22T23:12:01.185Z,4.30
2018-06-22T23:14:30.458Z,3.92
2018-06-22T23:16:59.792Z,4.53
2018-06-22T23:19:29.060Z,4.55
2018-06-22T23:21:58.324Z,4.70
2018-06-22T23:24:27.995Z,4.90
2018-06-22T23:26:57.249Z,4.40
2018-06-22T23:29:26.416Z,4.78
2018-06-22T23:31:55.569Z,5.22
2018-06-22T23:34:24.842Z,5.40
2018-06-22T23:36:54.333Z,4.65
2018-06-22T23:39:23.566Z,5.30
2018-06-22T23:41:52.816Z,4.87
2018-06-22T23:44:22.029Z,4.45
2018-06-22T23:46:51.515Z,5.00
2018-06-22T23:49:20.960Z,5.42
2018-06-22T23:51:50.316Z,5.25
2018-06-22T23:54:19.506Z,5.42
2018-06-22T23:56:48.913Z,4.72
2018-06-22T23:59:17.695Z,4.55
